sensor_id;sensor_type;location;lat;lon;timestamp;temperature;humidity
68385;DHT22;55336;43.062;25.626;2023-03-13T00:01:25;3.80;99.90
68385;DHT22;55336;43.062;25.626;2023-03-13T00:03:52;3.80;99.90
68385;DHT22;55336;43.062;25.626;2023-03-13T00:06:20;3.70;99.90
68385;DHT22;55336;43.062;25.626;2023-03-13T00:08:46;3.70;99.90
68385;DHT22;55336;43.062;25.626;2023-03-13T00:11:12;3.60;99.90
68385;DHT22;55336;43.062;25.626;2023-03-13T00:13:38;3.60;99.90
68385;DHT22;55336;43.062;25.626;2023-03-13T00:16:08;3.50;99.90
68385;DHT22;55336;43.062;25.626;2023-03-13T00:18:34;3.40;99.90
68385;DHT22;55336;43.062;25.626;2023-03-13T00:21:01;3.40;99.90
68385;DHT22;55336;43.062;25.626;2023-03-13T00:23:27;3.30;99.90
68385;DHT22;55336;43.062;25.626;2023-03-13T00:25:59;3.20;99.90
68385;DHT22;55336;43.062;25.626;2023-03-13T00:28:29;3.10;99.90
68385;DHT22;55336;43.062;25.626;2023-03-13T00:31:05;3.00;99.90
68385;DHT22;55336;43.062;25.626;2023-03-13T00:33:32;2.80;99.90
68385;DHT22;55336;43.062;25.626;2023-03-13T00:35:59;2.70;99.90
68385;DHT22;55336;43.062;25.626;2023-03-13T00:38:24;2.60;99.90
68385;DHT22;55336;43.062;25.626;2023-03-13T00:40:57;2.50;99.90
68385;DHT22;55336;43.062;25.626;2023-03-13T00:43:23;2.50;99.90
68385;DHT22;55336;43.062;25.626;2023-03-13T00:45:49;2.40;99.90
68385;DHT22;55336;43.062;25.626;2023-03-13T00:48:14;2.30;99.90
68385;DHT22;55336;43.062;25.626;2023-03-13T00:50:40;2.20;99.90
68385;DHT22;55336;43.062;25.626;2023-03-13T00:53:06;2.20;99.90
68385;DHT22;55336;43.062;25.626;2023-03-13T00:55:33;2.10;99.90
68385;DHT22;55336;43.062;25.626;2023-03-13T00:57:59;2.00;99.90
68385;DHT22;55336;43.062;25.626;2023-03-13T01:00:29;2.00;99.90
68385;DHT22;55336;43.062;25.626;2023-03-13T01:02:54;1.90;99.90
68385;DHT22;55336;43.062;25.626;2023-03-13T01:05:20;1.90;99.90
68385;DHT22;55336;43.062;25.626;2023-03-13T01:07:46;1.90;99.90
68385;DHT22;55336;43.062;25.626;2023-03-13T01:10:12;1.90;99.90
68385;DHT22;55336;43.062;25.626;2023-03-13T01:12:37;1.90;99.90
68385;DHT22;55336;43.062;25.626;2023-03-13T01:15:04;1.80;99.90
68385;DHT22;55336;43.062;25.626;2023-03-13T01:17:29;1.80;99.90
68385;DHT22;55336;43.062;25.626;2023-03-13T01:19:56;1.70;99.90
68385;DHT22;55336;43.062;25.626;2023-03-13T01:22:22;1.70;99.90
68385;DHT22;55336;43.062;25.626;2023-03-13T01:24:47;1.60;99.90
68385;DHT22;55336;43.062;25.626;2023-03-13T01:27:17;1.60;99.90
68385;DHT22;55336;43.062;25.626;2023-03-13T01:29:43;1.50;99.90
68385;DHT22;55336;43.062;25.626;2023-03-13T01:32:09;1.40;99.90
68385;DHT22;55336;43.062;25.626;2023-03-13T01:34:35;1.30;99.90
68385;DHT22;55336;43.062;25.626;2023-03-13T01:37:00;1.20;99.90
68385;DHT22;55336;43.062;25.626;2023-03-13T01:39:26;1.10;99.90
68385;DHT22;55336;43.062;25.626;2023-03-13T01:41:52;1.00;99.90
68385;DHT22;55336;43.062;25.626;2023-03-13T01:44:22;0.90;99.90
68385;DHT22;55336;43.062;25.626;2023-03-13T01:46:48;0.80;99.90
68385;DHT22;55336;43.062;25.626;2023-03-13T01:54:09;0.60;99.90
68385;DHT22;55336;43.062;25.626;2023-03-13T01:56:58;0.60;99.90
68385;DHT22;55336;43.062;25.626;2023-03-13T01:59:28;0.50;99.90
68385;DHT22;55336;43.062;25.626;2023-03-13T02:01:56;0.40;99.90
68385;DHT22;55336;43.062;25.626;2023-03-13T02:04:23;0.40;99.90
68385;DHT22;55336;43.062;25.626;2023-03-13T02:06:49;0.30;99.90
68385;DHT22;55336;43.062;25.626;2023-03-13T02:09:18;0.30;99.90
68385;DHT22;55336;43.062;25.626;2023-03-13T02:12:06;0.30;99.90
68385;DHT22;55336;43.062;25.626;2023-03-13T02:14:34;0.20;99.90
68385;DHT22;55336;43.062;25.626;2023-03-13T02:17:01;0.20;99.90
68385;DHT22;55336;43.062;25.626;2023-03-13T02:22:02;0.10;99.90
68385;DHT22;55336;43.062;25.626;2023-03-13T02:26:58;0.10;99.90
68385;DHT22;55336;43.062;25.626;2023-03-13T02:29:24;0.10;99.90
68385;DHT22;55336;43.062;25.626;2023-03-13T02:31:50;0.10;99.90
68385;DHT22;55336;43.062;25.626;2023-03-13T02:34:18;0.20;99.90
68385;DHT22;55336;43.062;25.626;2023-03-13T02:36:44;0.10;99.90
68385;DHT22;55336;43.062;25.626;2023-03-13T02:39:10;0.10;99.90
68385;DHT22;55336;43.062;25.626;2023-03-13T02:41:37;0.10;99.90
68385;DHT22;55336;43.062;25.626;2023-03-13T02:44:04;0.10;99.90
68385;DHT22;55336;43.062;25.626;2023-03-13T02:46:31;0.10;99.90
68385;DHT22;55336;43.062;25.626;2023-03-13T02:49:16;0.10;99.90
68385;DHT22;55336;43.062;25.626;2023-03-13T02:51:43;-0.10;99.90
68385;DHT22;55336;43.062;25.626;2023-03-13T02:54:13;-0.10;99.90
68385;DHT22;55336;43.062;25.626;2023-03-13T02:56:41;-0.10;99.90
68385;DHT22;55336;43.062;25.626;2023-03-13T02:59:07;-0.20;99.90
68385;DHT22;55336;43.062;25.626;2023-03-13T03:01:33;-0.20;99.90
68385;DHT22;55336;43.062;25.626;2023-03-13T03:03:59;-0.30;99.90
68385;DHT22;55336;43.062;25.626;2023-03-13T03:06:25;-0.40;99.90
68385;DHT22;55336;43.062;25.626;2023-03-13T03:08:50;-0.40;99.90
68385;DHT22;55336;43.062;25.626;2023-03-13T03:11:16;-0.40;99.90
68385;DHT22;55336;43.062;25.626;2023-03-13T03:13:42;-0.50;99.90
68385;DHT22;55336;43.062;25.626;2023-03-13T03:16:09;-0.60;99.90
68385;DHT22;55336;43.062;25.626;2023-03-13T03:18:35;-0.60;99.90
68385;DHT22;55336;43.062;25.626;2023-03-13T03:21:01;-0.70;99.90
68385;DHT22;55336;43.062;25.626;2023-03-13T03:23:31;-0.70;99.90
68385;DHT22;55336;43.062;25.626;2023-03-13T03:25:57;-0.80;99.90
68385;DHT22;55336;43.062;25.626;2023-03-13T03:28:23;-0.90;99.90
68385;DHT22;55336;43.062;25.626;2023-03-13T03:30:49;-1.00;99.90
68385;DHT22;55336;43.062;25.626;2023-03-13T03:33:15;-1.00;99.90
68385;DHT22;55336;43.062;25.626;2023-03-13T03:35:41;-1.10;99.90
68385;DHT22;55336;43.062;25.626;2023-03-13T03:38:06;-1.20;99.90
68385;DHT22;55336;43.062;25.626;2023-03-13T03:40:32;-1.20;99.90
68385;DHT22;55336;43.062;25.626;2023-03-13T03:42:58;-1.30;99.90
68385;DHT22;55336;43.062;25.626;2023-03-13T03:45:24;-1.30;99.90
68385;DHT22;55336;43.062;25.626;2023-03-13T03:47:50;-1.30;99.90
68385;DHT22;55336;43.062;25.626;2023-03-13T03:50:16;-1.40;99.90
68385;DHT22;55336;43.062;25.626;2023-03-13T03:52:42;-1.40;99.90
68385;DHT22;55336;43.062;25.626;2023-03-13T03:55:08;-1.50;99.90
68385;DHT22;55336;43.062;25.626;2023-03-13T03:57:34;-1.50;99.90
68385;DHT22;55336;43.062;25.626;2023-03-13T04:00:00;-2.10;99.90
68385;DHT22;55336;43.062;25.626;2023-03-13T04:02:26;-1.60;99.90
68385;DHT22;55336;43.062;25.626;2023-03-13T04:04:52;-1.60;99.90
68385;DHT22;55336;43.062;25.626;2023-03-13T04:07:17;-1.70;99.90
68385;DHT22;55336;43.062;25.626;2023-03-13T04:09:46;-2.10;99.90
68385;DHT22;55336;43.062;25.626;2023-03-13T04:12:12;-1.70;99.90
68385;DHT22;55336;43.062;25.626;2023-03-13T04:14:38;-1.80;99.90
68385;DHT22;55336;43.062;25.626;2023-03-13T04:17:03;-1.80;99.90
68385;DHT22;55336;43.062;25.626;2023-03-13T04:19:29;-1.90;99.90
68385;DHT22;55336;43.062;25.626;2023-03-13T04:21:55;-1.90;99.90
68385;DHT22;55336;43.062;25.626;2023-03-13T04:24:21;-2.00;99.90
68385;DHT22;55336;43.062;25.626;2023-03-13T04:26:47;-2.20;99.90
68385;DHT22;55336;43.062;25.626;2023-03-13T04:29:12;-2.00;99.90
68385;DHT22;55336;43.062;25.626;2023-03-13T04:31:38;-2.00;99.90
68385;DHT22;55336;43.062;25.626;2023-03-13T04:34:04;-2.10;99.90
68385;DHT22;55336;43.062;25.626;2023-03-13T04:36:30;-2.10;99.90
68385;DHT22;55336;43.062;25.626;2023-03-13T04:38:55;-2.10;99.90
68385;DHT22;55336;43.062;25.626;2023-03-13T04:41:22;-2.10;99.90
68385;DHT22;55336;43.062;25.626;2023-03-13T04:43:48;-2.20;99.90
68385;DHT22;55336;43.062;25.626;2023-03-13T04:46:14;-2.20;99.90
68385;DHT22;55336;43.062;25.626;2023-03-13T04:48:40;-2.20;99.90
68385;DHT22;55336;43.062;25.626;2023-03-13T04:51:06;-2.20;99.90
68385;DHT22;55336;43.062;25.626;2023-03-13T04:53:32;-2.20;99.90
68385;DHT22;55336;43.062;25.626;2023-03-13T04:55:58;-2.20;99.90
68385;DHT22;55336;43.062;25.626;2023-03-13T04:58:24;-2.20;99.90
68385;DHT22;55336;43.062;25.626;2023-03-13T05:00:51;-2.20;99.90
68385;DHT22;55336;43.062;25.626;2023-03-13T05:03:17;-2.10;99.90
68385;DHT22;55336;43.062;25.626;2023-03-13T05:05:43;-2.10;99.90
68385;DHT22;55336;43.062;25.626;2023-03-13T05:08:10;-2.00;99.90
68385;DHT22;55336;43.062;25.626;2023-03-13T05:10:36;-1.90;99.90
68385;DHT22;55336;43.062;25.626;2023-03-13T05:13:01;-1.80;99.90
68385;DHT22;55336;43.062;25.626;2023-03-13T05:15:27;-1.70;99.90
68385;DHT22;55336;43.062;25.626;2023-03-13T05:17:53;-1.60;99.90
68385;DHT22;55336;43.062;25.626;2023-03-13T05:20:19;-1.60;99.90
68385;DHT22;55336;43.062;25.626;2023-03-13T05:22:45;-1.30;99.90
68385;DHT22;55336;43.062;25.626;2023-03-13T05:25:11;-1.20;99.90
68385;DHT22;55336;43.062;25.626;2023-03-13T05:27:37;-1.00;99.90
68385;DHT22;55336;43.062;25.626;2023-03-13T05:30:03;-0.80;99.90
68385;DHT22;55336;43.062;25.626;2023-03-13T05:32:29;-0.70;99.90
68385;DHT22;55336;43.062;25.626;2023-03-13T05:34:54;-0.50;99.90
68385;DHT22;55336;43.062;25.626;2023-03-13T05:37:20;-0.40;99.90
68385;DHT22;55336;43.062;25.626;2023-03-13T05:39:47;-0.20;99.90
68385;DHT22;55336;43.062;25.626;2023-03-13T05:42:12;0.00;99.90
68385;DHT22;55336;43.062;25.626;2023-03-13T05:44:39;0.20;99.90
68385;DHT22;55336;43.062;25.626;2023-03-13T05:47:04;0.30;99.90
68385;DHT22;55336;43.062;25.626;2023-03-13T05:49:30;0.40;99.90
68385;DHT22;55336;43.062;25.626;2023-03-13T05:51:56;0.60;99.90
68385;DHT22;55336;43.062;25.626;2023-03-13T05:54:22;0.80;99.90
68385;DHT22;55336;43.062;25.626;2023-03-13T05:56:48;0.90;99.90
68385;DHT22;55336;43.062;25.626;2023-03-13T05:59:14;1.10;99.90
68385;DHT22;55336;43.062;25.626;2023-03-13T06:01:40;1.30;99.90
68385;DHT22;55336;43.062;25.626;2023-03-13T06:04:06;1.60;99.90
68385;DHT22;55336;43.062;25.626;2023-03-13T06:06:32;2.00;99.90
68385;DHT22;55336;43.062;25.626;2023-03-13T06:08:58;2.50;99.90
68385;DHT22;55336;43.062;25.626;2023-03-13T06:11:24;2.90;99.90
68385;DHT22;55336;43.062;25.626;2023-03-13T06:13:50;3.30;99.90
68385;DHT22;55336;43.062;25.626;2023-03-13T06:16:16;3.80;99.90
68385;DHT22;55336;43.062;25.626;2023-03-13T06:18:42;4.30;99.90
68385;DHT22;55336;43.062;25.626;2023-03-13T06:21:08;4.70;99.90
68385;DHT22;55336;43.062;25.626;2023-03-13T06:23:34;5.10;99.90
68385;DHT22;55336;43.062;25.626;2023-03-13T06:26:00;5.60;99.90
68385;DHT22;55336;43.062;25.626;2023-03-13T06:28:26;6.00;99.90
68385;DHT22;55336;43.062;25.626;2023-03-13T06:30:52;6.40;99.90
68385;DHT22;55336;43.062;25.626;2023-03-13T06:33:18;6.60;96.40
68385;DHT22;55336;43.062;25.626;2023-03-13T06:35:44;7.10;92.20
68385;DHT22;55336;43.062;25.626;2023-03-13T06:38:10;7.40;84.40
68385;DHT22;55336;43.062;25.626;2023-03-13T06:40:36;7.60;84.30
68385;DHT22;55336;43.062;25.626;2023-03-13T06:43:02;7.80;80.00
68385;DHT22;55336;43.062;25.626;2023-03-13T06:45:28;8.40;78.00
68385;DHT22;55336;43.062;25.626;2023-03-13T06:47:54;8.70;73.60
68385;DHT22;55336;43.062;25.626;2023-03-13T06:50:19;8.90;69.30
68385;DHT22;55336;43.062;25.626;2023-03-13T06:52:48;9.10;68.30
68385;DHT22;55336;43.062;25.626;2023-03-13T06:55:14;9.40;67.70
68385;DHT22;55336;43.062;25.626;2023-03-13T06:57:40;9.70;65.40
68385;DHT22;55336;43.062;25.626;2023-03-13T07:00:06;9.90;62.90
68385;DHT22;55336;43.062;25.626;2023-03-13T07:02:32;10.20;61.50
68385;DHT22;55336;43.062;25.626;2023-03-13T07:04:57;10.40;61.50
68385;DHT22;55336;43.062;25.626;2023-03-13T07:07:36;10.40;60.40
68385;DHT22;55336;43.062;25.626;2023-03-13T07:10:02;10.60;58.10
68385;DHT22;55336;43.062;25.626;2023-03-13T07:12:29;11.00;57.50
68385;DHT22;55336;43.062;25.626;2023-03-13T07:14:55;11.50;56.40
68385;DHT22;55336;43.062;25.626;2023-03-13T07:17:20;11.60;54.10
68385;DHT22;55336;43.062;25.626;2023-03-13T07:19:47;11.60;53.70
68385;DHT22;55336;43.062;25.626;2023-03-13T07:22:13;11.60;53.30
68385;DHT22;55336;43.062;25.626;2023-03-13T07:24:38;12.00;53.90
68385;DHT22;55336;43.062;25.626;2023-03-13T07:27:04;12.30;51.20
68385;DHT22;55336;43.062;25.626;2023-03-13T07:29:30;12.40;49.30
68385;DHT22;55336;43.062;25.626;2023-03-13T07:31:55;12.20;48.70
68385;DHT22;55336;43.062;25.626;2023-03-13T07:34:21;12.20;49.00
68385;DHT22;55336;43.062;25.626;2023-03-13T07:36:47;12.30;49.20
68385;DHT22;55336;43.062;25.626;2023-03-13T07:39:12;12.50;48.10
68385;DHT22;55336;43.062;25.626;2023-03-13T07:41:38;12.50;48.60
68385;DHT22;55336;43.062;25.626;2023-03-13T07:44:04;12.50;48.60
68385;DHT22;55336;43.062;25.626;2023-03-13T07:46:30;12.60;48.40
68385;DHT22;55336;43.062;25.626;2023-03-13T07:48:56;13.20;47.50
68385;DHT22;55336;43.062;25.626;2023-03-13T07:51:22;12.90;48.00
68385;DHT22;55336;43.062;25.626;2023-03-13T07:53:51;12.90;45.60
68385;DHT22;55336;43.062;25.626;2023-03-13T07:56:25;13.20;45.50
68385;DHT22;55336;43.062;25.626;2023-03-13T07:58:51;13.70;44.80
68385;DHT22;55336;43.062;25.626;2023-03-13T08:01:18;13.50;45.10
68385;DHT22;55336;43.062;25.626;2023-03-13T08:03:44;12.50;50.10
68385;DHT22;55336;43.062;25.626;2023-03-13T08:06:11;12.70;49.10
68385;DHT22;55336;43.062;25.626;2023-03-13T08:08:38;13.30;47.90
68385;DHT22;55336;43.062;25.626;2023-03-13T08:11:05;12.80;46.70
68385;DHT22;55336;43.062;25.626;2023-03-13T08:13:31;13.80;45.50
68385;DHT22;55336;43.062;25.626;2023-03-13T08:16:12;14.40;44.40
68385;DHT22;55336;43.062;25.626;2023-03-13T08:18:40;14.90;44.10
68385;DHT22;55336;43.062;25.626;2023-03-13T08:21:16;14.90;42.00
68385;DHT22;55336;43.062;25.626;2023-03-13T08:23:45;14.70;43.30
68385;DHT22;55336;43.062;25.626;2023-03-13T08:26:12;14.80;42.00
68385;DHT22;55336;43.062;25.626;2023-03-13T08:28:38;15.40;40.20
68385;DHT22;55336;43.062;25.626;2023-03-13T08:31:07;14.90;41.40
68385;DHT22;55336;43.062;25.626;2023-03-13T08:33:33;15.00;40.10
68385;DHT22;55336;43.062;25.626;2023-03-13T08:36:05;15.50;39.20
68385;DHT22;55336;43.062;25.626;2023-03-13T08:38:32;15.80;38.40
68385;DHT22;55336;43.062;25.626;2023-03-13T08:40:57;15.70;39.50
68385;DHT22;55336;43.062;25.626;2023-03-13T08:43:23;16.00;38.50
68385;DHT22;55336;43.062;25.626;2023-03-13T08:45:53;15.70;40.10
68385;DHT22;55336;43.062;25.626;2023-03-13T08:48:19;15.70;40.40
68385;DHT22;55336;43.062;25.626;2023-03-13T08:50:44;16.30;38.30
68385;DHT22;55336;43.062;25.626;2023-03-13T08:53:10;16.40;37.90
68385;DHT22;55336;43.062;25.626;2023-03-13T08:55:36;16.60;36.30
68385;DHT22;55336;43.062;25.626;2023-03-13T08:58:02;16.10;38.50
68385;DHT22;55336;43.062;25.626;2023-03-13T09:00:27;15.40;39.10
68385;DHT22;55336;43.062;25.626;2023-03-13T09:02:55;15.20;39.50
68385;DHT22;55336;43.062;25.626;2023-03-13T09:05:21;15.10;39.80
68385;DHT22;55336;43.062;25.626;2023-03-13T09:07:47;15.80;39.00
68385;DHT22;55336;43.062;25.626;2023-03-13T09:10:13;15.90;38.20
68385;DHT22;55336;43.062;25.626;2023-03-13T09:12:39;15.50;38.10
68385;DHT22;55336;43.062;25.626;2023-03-13T09:15:06;16.00;38.50
68385;DHT22;55336;43.062;25.626;2023-03-13T09:17:32;16.40;35.50
68385;DHT22;55336;43.062;25.626;2023-03-13T09:19:57;16.60;36.10
68385;DHT22;55336;43.062;25.626;2023-03-13T09:22:24;17.10;33.70
68385;DHT22;55336;43.062;25.626;2023-03-13T09:24:50;16.90;33.90
68385;DHT22;55336;43.062;25.626;2023-03-13T09:27:16;15.90;33.40
68385;DHT22;55336;43.062;25.626;2023-03-13T09:29:44;16.80;33.10
68385;DHT22;55336;43.062;25.626;2023-03-13T09:32:12;17.50;31.60
68385;DHT22;55336;43.062;25.626;2023-03-13T09:34:45;16.80;32.60
68385;DHT22;55336;43.062;25.626;2023-03-13T09:37:11;15.80;33.30
68385;DHT22;55336;43.062;25.626;2023-03-13T09:39:40;16.10;32.80
68385;DHT22;55336;43.062;25.626;2023-03-13T09:42:11;16.00;32.30
68385;DHT22;55336;43.062;25.626;2023-03-13T09:44:41;16.60;31.20
68385;DHT22;55336;43.062;25.626;2023-03-13T09:47:24;16.60;33.70
68385;DHT22;55336;43.062;25.626;2023-03-13T09:49:53;16.80;35.80
68385;DHT22;55336;43.062;25.626;2023-03-13T09:52:22;16.30;36.00
68385;DHT22;55336;43.062;25.626;2023-03-13T09:59:59;15.40;40.20
68385;DHT22;55336;43.062;25.626;2023-03-13T10:02:31;16.40;39.40
68385;DHT22;55336;43.062;25.626;2023-03-13T10:07:57;15.70;37.00
68385;DHT22;55336;43.062;25.626;2023-03-13T10:10:31;16.90;36.00
68385;DHT22;55336;43.062;25.626;2023-03-13T10:13:02;15.70;35.20
68385;DHT22;55336;43.062;25.626;2023-03-13T10:17:58;16.70;34.80
68385;DHT22;55336;43.062;25.626;2023-03-13T10:20:35;14.90;38.20
68385;DHT22;55336;43.062;25.626;2023-03-13T10:25:29;17.00;32.90
68385;DHT22;55336;43.062;25.626;2023-03-13T10:27:55;16.70;34.70
68385;DHT22;55336;43.062;25.626;2023-03-13T10:30:24;16.80;35.90
68385;DHT22;55336;43.062;25.626;2023-03-13T10:32:52;17.00;34.90
68385;DHT22;55336;43.062;25.626;2023-03-13T10:35:49;17.40;33.30
68385;DHT22;55336;43.062;25.626;2023-03-13T10:38:23;17.80;32.60
68385;DHT22;55336;43.062;25.626;2023-03-13T10:41:01;17.80;31.40
68385;DHT22;55336;43.062;25.626;2023-03-13T10:43:31;17.20;32.10
68385;DHT22;55336;43.062;25.626;2023-03-13T10:45:57;17.60;32.00
68385;DHT22;55336;43.062;25.626;2023-03-13T10:48:28;16.70;34.70
68385;DHT22;55336;43.062;25.626;2023-03-13T10:50:57;16.50;34.70
68385;DHT22;55336;43.062;25.626;2023-03-13T10:53:25;17.30;32.30
68385;DHT22;55336;43.062;25.626;2023-03-13T10:55:57;17.10;32.70
68385;DHT22;55336;43.062;25.626;2023-03-13T10:58:31;17.50;35.30
68385;DHT22;55336;43.062;25.626;2023-03-13T11:03:58;17.00;34.20
68385;DHT22;55336;43.062;25.626;2023-03-13T11:06:51;16.30;31.00
68385;DHT22;55336;43.062;25.626;2023-03-13T11:09:22;16.50;35.90
68385;DHT22;55336;43.062;25.626;2023-03-13T11:12:10;16.80;33.80
68385;DHT22;55336;43.062;25.626;2023-03-13T11:14:40;16.90;31.50
68385;DHT22;55336;43.062;25.626;2023-03-13T11:22:33;17.20;32.00
68385;DHT22;55336;43.062;25.626;2023-03-13T11:46:11;18.20;28.50
68385;DHT22;55336;43.062;25.626;2023-03-13T11:51:13;18.00;28.90
68385;DHT22;55336;43.062;25.626;2023-03-13T11:56:18;17.90;31.50
68385;DHT22;55336;43.062;25.626;2023-03-13T11:59:04;16.60;34.80
68385;DHT22;55336;43.062;25.626;2023-03-13T12:01:39;17.50;30.20
68385;DHT22;55336;43.062;25.626;2023-03-13T12:04:12;17.80;29.30
68385;DHT22;55336;43.062;25.626;2023-03-13T12:06:49;17.70;31.80
68385;DHT22;55336;43.062;25.626;2023-03-13T12:14:12;18.30;29.70
68385;DHT22;55336;43.062;25.626;2023-03-13T12:16:50;19.00;28.50
68385;DHT22;55336;43.062;25.626;2023-03-13T12:20:04;19.10;26.40
68385;DHT22;55336;43.062;25.626;2023-03-13T12:22:12;18.00;27.10
68385;DHT22;55336;43.062;25.626;2023-03-13T12:24:39;18.10;29.30
68385;DHT22;55336;43.062;25.626;2023-03-13T12:32:36;18.40;27.20
68385;DHT22;55336;43.062;25.626;2023-03-13T12:40:25;17.50;29.20
68385;DHT22;55336;43.062;25.626;2023-03-13T12:42:57;17.80;31.40
68385;DHT22;55336;43.062;25.626;2023-03-13T12:45:26;18.40;29.20
68385;DHT22;55336;43.062;25.626;2023-03-13T12:58:29;17.80;30.00
68385;DHT22;55336;43.062;25.626;2023-03-13T13:01:03;17.60;29.60
68385;DHT22;55336;43.062;25.626;2023-03-13T13:08:26;17.60;30.80
68385;DHT22;55336;43.062;25.626;2023-03-13T13:10:52;17.60;29.20
68385;DHT22;55336;43.062;25.626;2023-03-13T13:13:25;18.10;29.60
68385;DHT22;55336;43.062;25.626;2023-03-13T13:16:13;18.50;29.00
68385;DHT22;55336;43.062;25.626;2023-03-13T13:18:42;18.20;26.20
68385;DHT22;55336;43.062;25.626;2023-03-13T13:23:40;18.60;27.70
68385;DHT22;55336;43.062;25.626;2023-03-13T13:28:49;18.20;26.70
68385;DHT22;55336;43.062;25.626;2023-03-13T13:33:59;18.70;25.80
68385;DHT22;55336;43.062;25.626;2023-03-13T13:36:26;18.40;28.90
68385;DHT22;55336;43.062;25.626;2023-03-13T13:38:52;18.40;29.40
68385;DHT22;55336;43.062;25.626;2023-03-13T13:43:45;18.40;27.00
68385;DHT22;55336;43.062;25.626;2023-03-13T13:46:26;19.10;25.90
68385;DHT22;55336;43.062;25.626;2023-03-13T13:51:29;19.30;24.50
68385;DHT22;55336;43.062;25.626;2023-03-13T13:53:56;19.60;24.40
68385;DHT22;55336;43.062;25.626;2023-03-13T14:01:22;19.30;23.90
68385;DHT22;55336;43.062;25.626;2023-03-13T14:03:49;19.40;24.20
68385;DHT22;55336;43.062;25.626;2023-03-13T14:06:20;19.50;23.80
68385;DHT22;55336;43.062;25.626;2023-03-13T14:08:47;19.50;25.50
68385;DHT22;55336;43.062;25.626;2023-03-13T14:11:24;19.40;23.40
68385;DHT22;55336;43.062;25.626;2023-03-13T14:14:12;19.20;23.20
68385;DHT22;55336;43.062;25.626;2023-03-13T14:16:38;19.30;24.90
68385;DHT22;55336;43.062;25.626;2023-03-13T14:19:19;19.60;25.60
68385;DHT22;55336;43.062;25.626;2023-03-13T14:21:45;18.90;25.50
68385;DHT22;55336;43.062;25.626;2023-03-13T14:24:12;18.80;25.90
68385;DHT22;55336;43.062;25.626;2023-03-13T14:26:41;18.50;25.00
68385;DHT22;55336;43.062;25.626;2023-03-13T14:29:07;18.70;25.60
68385;DHT22;55336;43.062;25.626;2023-03-13T14:31:39;19.00;24.30
68385;DHT22;55336;43.062;25.626;2023-03-13T14:34:07;18.90;24.20
68385;DHT22;55336;43.062;25.626;2023-03-13T14:36:46;18.20;23.60
68385;DHT22;55336;43.062;25.626;2023-03-13T14:39:16;18.30;24.60
68385;DHT22;55336;43.062;25.626;2023-03-13T14:41:43;18.60;24.60
68385;DHT22;55336;43.062;25.626;2023-03-13T14:46:39;18.20;26.50
68385;DHT22;55336;43.062;25.626;2023-03-13T14:49:07;18.00;24.10
68385;DHT22;55336;43.062;25.626;2023-03-13T14:51:35;18.80;24.70
68385;DHT22;55336;43.062;25.626;2023-03-13T14:54:02;19.10;22.50
68385;DHT22;55336;43.062;25.626;2023-03-13T14:56:38;19.10;22.40
68385;DHT22;55336;43.062;25.626;2023-03-13T14:59:07;18.80;22.70
68385;DHT22;55336;43.062;25.626;2023-03-13T15:01:37;18.40;23.60
68385;DHT22;55336;43.062;25.626;2023-03-13T15:04:03;18.10;25.00
68385;DHT22;55336;43.062;25.626;2023-03-13T15:06:29;18.10;24.60
68385;DHT22;55336;43.062;25.626;2023-03-13T15:11:35;18.00;24.60
68385;DHT22;55336;43.062;25.626;2023-03-13T15:14:29;18.10;24.00
68385;DHT22;55336;43.062;25.626;2023-03-13T15:16:51;18.30;23.30
68385;DHT22;55336;43.062;25.626;2023-03-13T15:19:17;18.30;22.80
68385;DHT22;55336;43.062;25.626;2023-03-13T15:21:42;17.70;24.80
68385;DHT22;55336;43.062;25.626;2023-03-13T15:24:12;18.10;23.50
68385;DHT22;55336;43.062;25.626;2023-03-13T15:26:39;18.30;23.50
68385;DHT22;55336;43.062;25.626;2023-03-13T15:29:05;18.10;22.60
68385;DHT22;55336;43.062;25.626;2023-03-13T15:31:31;17.80;23.30
68385;DHT22;55336;43.062;25.626;2023-03-13T15:33:58;17.10;23.80
68385;DHT22;55336;43.062;25.626;2023-03-13T15:36:24;16.50;24.70
68385;DHT22;55336;43.062;25.626;2023-03-13T15:38:50;16.10;25.20
68385;DHT22;55336;43.062;25.626;2023-03-13T15:41:16;15.80;24.90
68385;DHT22;55336;43.062;25.626;2023-03-13T15:43:42;15.50;25.30
68385;DHT22;55336;43.062;25.626;2023-03-13T15:46:10;15.00;26.00
68385;DHT22;55336;43.062;25.626;2023-03-13T15:48:46;14.60;26.60
68385;DHT22;55336;43.062;25.626;2023-03-13T15:51:13;14.10;28.40
68385;DHT22;55336;43.062;25.626;2023-03-13T15:53:39;13.70;28.00
68385;DHT22;55336;43.062;25.626;2023-03-13T15:58:37;13.00;29.20
68385;DHT22;55336;43.062;25.626;2023-03-13T16:01:03;12.80;30.10
68385;DHT22;55336;43.062;25.626;2023-03-13T16:03:28;12.50;31.20
68385;DHT22;55336;43.062;25.626;2023-03-13T16:05:55;12.20;32.30
68385;DHT22;55336;43.062;25.626;2023-03-13T16:08:25;11.90;33.30
68385;DHT22;55336;43.062;25.626;2023-03-13T16:10:51;11.50;36.60
68385;DHT22;55336;43.062;25.626;2023-03-13T16:13:17;11.20;37.00
68385;DHT22;55336;43.062;25.626;2023-03-13T16:15:43;10.90;38.00
68385;DHT22;55336;43.062;25.626;2023-03-13T16:18:12;10.60;40.40
68385;DHT22;55336;43.062;25.626;2023-03-13T16:20:40;10.30;40.10
68385;DHT22;55336;43.062;25.626;2023-03-13T16:23:06;10.00;40.30
68385;DHT22;55336;43.062;25.626;2023-03-13T16:25:31;9.50;42.40
68385;DHT22;55336;43.062;25.626;2023-03-13T16:27:57;9.40;42.80
68385;DHT22;55336;43.062;25.626;2023-03-13T16:30:28;9.10;43.00
68385;DHT22;55336;43.062;25.626;2023-03-13T16:32:54;8.80;43.60
68385;DHT22;55336;43.062;25.626;2023-03-13T16:35:20;8.60;44.10
68385;DHT22;55336;43.062;25.626;2023-03-13T16:37:46;8.30;44.50
68385;DHT22;55336;43.062;25.626;2023-03-13T16:40:16;8.00;44.70
68385;DHT22;55336;43.062;25.626;2023-03-13T16:42:42;7.80;46.10
68385;DHT22;55336;43.062;25.626;2023-03-13T16:45:08;7.60;47.10
68385;DHT22;55336;43.062;25.626;2023-03-13T16:47:34;7.40;47.20
68385;DHT22;55336;43.062;25.626;2023-03-13T16:50:01;7.20;48.10
68385;DHT22;55336;43.062;25.626;2023-03-13T16:52:26;7.00;49.40
68385;DHT22;55336;43.062;25.626;2023-03-13T16:54:52;6.90;51.70
68385;DHT22;55336;43.062;25.626;2023-03-13T16:57:19;6.80;54.20
68385;DHT22;55336;43.062;25.626;2023-03-13T16:59:47;6.60;57.30
68385;DHT22;55336;43.062;25.626;2023-03-13T17:02:19;6.40;56.30
68385;DHT22;55336;43.062;25.626;2023-03-13T17:04:45;6.30;57.50
68385;DHT22;55336;43.062;25.626;2023-03-13T17:07:18;6.10;56.80
68385;DHT22;55336;43.062;25.626;2023-03-13T17:09:44;6.00;57.80
68385;DHT22;55336;43.062;25.626;2023-03-13T17:12:10;6.00;62.80
68385;DHT22;55336;43.062;25.626;2023-03-13T17:14:36;5.90;59.60
68385;DHT22;55336;43.062;25.626;2023-03-13T17:17:02;6.10;58.40
68385;DHT22;55336;43.062;25.626;2023-03-13T17:19:27;5.60;60.20